sensor_id;sensor_type;location;lat;lon;timestamp;P1;durP1;ratioP1;P2;durP2;ratioP2
24663;SDS011;12791;50.992;13.788;2023-02-22T00:01:14;7.40;;;4.70;;
24663;SDS011;12791;50.992;13.788;2023-02-22T00:03:52;7.85;;;4.72;;
24663;SDS011;12791;50.992;13.788;2023-02-22T00:06:20;6.35;;;4.95;;
24663;SDS011;12791;50.992;13.788;2023-02-22T00:08:50;8.07;;;5.30;;
24663;SDS011;12791;50.992;13.788;2023-02-22T00:11:17;9.57;;;5.45;;
24663;SDS011;12791;50.992;13.788;2023-02-22T00:13:44;6.55;;;4.93;;
24663;SDS011;12791;50.992;13.788;2023-02-22T00:16:12;6.97;;;5.00;;
24663;SDS011;12791;50.992;13.788;2023-02-22T00:18:40;5.75;;;4.38;;
24663;SDS011;12791;50.992;13.788;2023-02-22T00:21:08;6.05;;;4.43;;
24663;SDS011;12791;50.992;13.788;2023-02-22T00:23:36;7.82;;;5.15;;
24663;SDS011;12791;50.992;13.788;2023-02-22T00:26:08;5.00;;;4.38;;
24663;SDS011;12791;50.992;13.788;2023-02-22T00:28:35;6.28;;;5.15;;
24663;SDS011;12791;50.992;13.788;2023-02-22T00:31:01;5.10;;;4.60;;
24663;SDS011;12791;50.992;13.788;2023-02-22T00:33:29;6.65;;;4.43;;
24663;SDS011;12791;50.992;13.788;2023-02-22T00:35:56;6.53;;;4.95;;
24663;SDS011;12791;50.992;13.788;2023-02-22T00:38:23;7.05;;;5.15;;
24663;SDS011;12791;50.992;13.788;2023-02-22T00:40:50;5.65;;;4.55;;
24663;SDS011;12791;50.992;13.788;2023-02-22T00:43:18;6.88;;;4.70;;
24663;SDS011;12791;50.992;13.788;2023-02-22T00:45:45;5.57;;;4.28;;
24663;SDS011;12791;50.992;13.788;2023-02-22T00:48:13;7.28;;;5.00;;
24663;SDS011;12791;50.992;13.788;2023-02-22T00:50:40;6.57;;;4.85;;
24663;SDS011;12791;50.992;13.788;2023-02-22T00:53:07;6.70;;;5.13;;
24663;SDS011;12791;50.992;13.788;2023-02-22T00:55:35;4.72;;;4.22;;
24663;SDS011;12791;50.992;13.788;2023-02-22T00:58:02;6.65;;;5.25;;
24663;SDS011;12791;50.992;13.788;2023-02-22T01:00:32;6.18;;;4.97;;
24663;SDS011;12791;50.992;13.788;2023-02-22T01:03:00;6.80;;;5.45;;
24663;SDS011;12791;50.992;13.788;2023-02-22T01:05:28;6.30;;;5.07;;
24663;SDS011;12791;50.992;13.788;2023-02-22T01:07:55;5.25;;;4.57;;
24663;SDS011;12791;50.992;13.788;2023-02-22T01:10:24;7.75;;;5.60;;
24663;SDS011;12791;50.992;13.788;2023-02-22T01:12:53;5.47;;;4.80;;
24663;SDS011;12791;50.992;13.788;2023-02-22T01:15:21;7.38;;;5.55;;
24663;SDS011;12791;50.992;13.788;2023-02-22T01:17:51;7.18;;;5.65;;
24663;SDS011;12791;50.992;13.788;2023-02-22T01:20:19;7.25;;;5.88;;
24663;SDS011;12791;50.992;13.788;2023-02-22T01:22:48;7.80;;;6.00;;
24663;SDS011;12791;50.992;13.788;2023-02-22T01:25:18;6.20;;;5.22;;
24663;SDS011;12791;50.992;13.788;2023-02-22T01:27:46;6.75;;;5.43;;
24663;SDS011;12791;50.992;13.788;2023-02-22T01:30:14;7.22;;;5.30;;
24663;SDS011;12791;50.992;13.788;2023-02-22T01:32:42;7.82;;;5.22;;
24663;SDS011;12791;50.992;13.788;2023-02-22T01:35:11;7.88;;;5.35;;
24663;SDS011;12791;50.992;13.788;2023-02-22T01:37:39;8.25;;;6.00;;
24663;SDS011;12791;50.992;13.788;2023-02-22T01:40:08;8.38;;;6.25;;
24663;SDS011;12791;50.992;13.788;2023-02-22T01:48:12;6.97;;;5.55;;
24663;SDS011;12791;50.992;13.788;2023-02-22T01:50:44;8.32;;;6.03;;
24663;SDS011;12791;50.992;13.788;2023-02-22T01:53:17;7.03;;;5.75;;
24663;SDS011;12791;50.992;13.788;2023-02-22T01:55:45;7.38;;;5.68;;
24663;SDS011;12791;50.992;13.788;2023-02-22T01:58:12;8.07;;;6.45;;
24663;SDS011;12791;50.992;13.788;2023-02-22T02:00:41;8.70;;;6.63;;
24663;SDS011;12791;50.992;13.788;2023-02-22T02:03:10;9.32;;;6.78;;
24663;SDS011;12791;50.992;13.788;2023-02-22T02:05:40;7.65;;;5.97;;
24663;SDS011;12791;50.992;13.788;2023-02-22T02:08:11;8.45;;;6.07;;
24663;SDS011;12791;50.992;13.788;2023-02-22T02:10:46;7.82;;;5.90;;
24663;SDS011;12791;50.992;13.788;2023-02-22T02:13:14;9.82;;;6.20;;
24663;SDS011;12791;50.992;13.788;2023-02-22T02:15:41;10.65;;;6.88;;
24663;SDS011;12791;50.992;13.788;2023-02-22T02:18:09;8.60;;;6.85;;
24663;SDS011;12791;50.992;13.788;2023-02-22T02:20:41;10.43;;;6.50;;
24663;SDS011;12791;50.992;13.788;2023-02-22T02:23:26;11.57;;;7.25;;
24663;SDS011;12791;50.992;13.788;2023-02-22T02:26:20;11.82;;;7.65;;
24663;SDS011;12791;50.992;13.788;2023-02-22T02:32:38;10.55;;;7.10;;
24663;SDS011;12791;50.992;13.788;2023-02-22T02:35:18;11.25;;;7.38;;
24663;SDS011;12791;50.992;13.788;2023-02-22T02:37:54;10.38;;;6.78;;
24663;SDS011;12791;50.992;13.788;2023-02-22T02:40:27;13.68;;;7.80;;
24663;SDS011;12791;50.992;13.788;2023-02-22T02:43:03;9.27;;;6.72;;
24663;SDS011;12791;50.992;13.788;2023-02-22T02:45:34;8.73;;;6.25;;
24663;SDS011;12791;50.992;13.788;2023-02-22T02:48:07;9.43;;;7.18;;
24663;SDS011;12791;50.992;13.788;2023-02-22T02:50:36;9.10;;;6.53;;
24663;SDS011;12791;50.992;13.788;2023-02-22T02:53:07;10.02;;;6.80;;
24663;SDS011;12791;50.992;13.788;2023-02-22T02:55:36;10.65;;;7.35;;
24663;SDS011;12791;50.992;13.788;2023-02-22T02:58:03;11.25;;;8.18;;
24663;SDS011;12791;50.992;13.788;2023-02-22T03:00:31;10.45;;;6.88;;
24663;SDS011;12791;50.992;13.788;2023-02-22T03:03:15;10.05;;;7.00;;
24663;SDS011;12791;50.992;13.788;2023-02-22T03:06:11;12.13;;;7.90;;
24663;SDS011;12791;50.992;13.788;2023-02-22T03:09:02;9.73;;;6.97;;
24663;SDS011;12791;50.992;13.788;2023-02-22T03:11:39;11.73;;;7.00;;
24663;SDS011;12791;50.992;13.788;2023-02-22T03:14:15;10.45;;;7.13;;
24663;SDS011;12791;50.992;13.788;2023-02-22T03:16:47;9.23;;;6.60;;
24663;SDS011;12791;50.992;13.788;2023-02-22T03:19:19;10.35;;;7.18;;
24663;SDS011;12791;50.992;13.788;2023-02-22T03:21:53;8.43;;;6.32;;
24663;SDS011;12791;50.992;13.788;2023-02-22T03:24:26;10.48;;;7.53;;
24663;SDS011;12791;50.992;13.788;2023-02-22T03:26:56;9.65;;;6.47;;
24663;SDS011;12791;50.992;13.788;2023-02-22T03:29:27;10.88;;;6.95;;
24663;SDS011;12791;50.992;13.788;2023-02-22T03:32:00;9.65;;;6.93;;
24663;SDS011;12791;50.992;13.788;2023-02-22T03:34:34;9.60;;;6.82;;
24663;SDS011;12791;50.992;13.788;2023-02-22T03:37:07;9.93;;;6.85;;
24663;SDS011;12791;50.992;13.788;2023-02-22T03:39:39;8.05;;;5.90;;
24663;SDS011;12791;50.992;13.788;2023-02-22T03:42:09;9.27;;;6.97;;
24663;SDS011;12791;50.992;13.788;2023-02-22T03:44:39;10.60;;;7.15;;
24663;SDS011;12791;50.992;13.788;2023-02-22T03:47:09;9.27;;;6.63;;
24663;SDS011;12791;50.992;13.788;2023-02-22T03:49:41;10.02;;;6.93;;
24663;SDS011;12791;50.992;13.788;2023-02-22T03:52:13;10.43;;;7.32;;
24663;SDS011;12791;50.992;13.788;2023-02-22T03:54:39;11.60;;;7.40;;
24663;SDS011;12791;50.992;13.788;2023-02-22T03:57:07;7.82;;;6.38;;
24663;SDS011;12791;50.992;13.788;2023-02-22T03:59:38;11.02;;;7.88;;
24663;SDS011;12791;50.992;13.788;2023-02-22T04:02:05;9.27;;;6.45;;
24663;SDS011;12791;50.992;13.788;2023-02-22T04:04:32;9.63;;;7.15;;
24663;SDS011;12791;50.992;13.788;2023-02-22T04:07:00;10.25;;;6.60;;
24663;SDS011;12791;50.992;13.788;2023-02-22T04:09:27;9.65;;;6.57;;
24663;SDS011;12791;50.992;13.788;2023-02-22T04:11:53;10.27;;;6.80;;
24663;SDS011;12791;50.992;13.788;2023-02-22T04:14:20;9.15;;;6.30;;
24663;SDS011;12791;50.992;13.788;2023-02-22T04:16:46;9.05;;;6.55;;
24663;SDS011;12791;50.992;13.788;2023-02-22T04:19:13;8.35;;;6.47;;
24663;SDS011;12791;50.992;13.788;2023-02-22T04:21:40;9.88;;;6.95;;
24663;SDS011;12791;50.992;13.788;2023-02-22T04:24:07;8.80;;;6.47;;
24663;SDS011;12791;50.992;13.788;2023-02-22T04:26:34;9.63;;;6.30;;
24663;SDS011;12791;50.992;13.788;2023-02-22T04:29:01;8.80;;;6.32;;
24663;SDS011;12791;50.992;13.788;2023-02-22T04:31:28;8.35;;;6.32;;
24663;SDS011;12791;50.992;13.788;2023-02-22T04:33:54;9.73;;;6.25;;
24663;SDS011;12791;50.992;13.788;2023-02-22T04:36:21;8.70;;;6.05;;
24663;SDS011;12791;50.992;13.788;2023-02-22T04:38:48;8.07;;;6.50;;
24663;SDS011;12791;50.992;13.788;2023-02-22T04:41:17;8.80;;;6.38;;
24663;SDS011;12791;50.992;13.788;2023-02-22T04:43:45;10.70;;;7.28;;
24663;SDS011;12791;50.992;13.788;2023-02-22T04:46:12;8.55;;;6.00;;
24663;SDS011;12791;50.992;13.788;2023-02-22T04:48:39;9.80;;;6.82;;
24663;SDS011;12791;50.992;13.788;2023-02-22T04:51:06;10.27;;;6.53;;
24663;SDS011;12791;50.992;13.788;2023-02-22T04:53:33;10.80;;;6.72;;
24663;SDS011;12791;50.992;13.788;2023-02-22T04:56:00;10.43;;;6.97;;
24663;SDS011;12791;50.992;13.788;2023-02-22T04:58:28;8.15;;;5.88;;
24663;SDS011;12791;50.992;13.788;2023-02-22T05:00:55;9.15;;;6.72;;
24663;SDS011;12791;50.992;13.788;2023-02-22T05:03:22;9.63;;;7.30;;
24663;SDS011;12791;50.992;13.788;2023-02-22T05:05:50;10.73;;;6.85;;
24663;SDS011;12791;50.992;13.788;2023-02-22T05:08:16;10.30;;;7.10;;
24663;SDS011;12791;50.992;13.788;2023-02-22T05:10:43;9.65;;;7.10;;
24663;SDS011;12791;50.992;13.788;2023-02-22T05:13:10;10.93;;;7.65;;
24663;SDS011;12791;50.992;13.788;2023-02-22T05:15:38;9.93;;;7.82;;
24663;SDS011;12791;50.992;13.788;2023-02-22T05:18:04;11.20;;;8.43;;
24663;SDS011;12791;50.992;13.788;2023-02-22T05:20:32;9.55;;;7.57;;
24663;SDS011;12791;50.992;13.788;2023-02-22T05:23:00;11.88;;;7.32;;
24663;SDS011;12791;50.992;13.788;2023-02-22T05:25:29;10.32;;;7.13;;
24663;SDS011;12791;50.992;13.788;2023-02-22T05:27:57;9.50;;;7.00;;
24663;SDS011;12791;50.992;13.788;2023-02-22T05:30:26;7.68;;;6.00;;
24663;SDS011;12791;50.992;13.788;2023-02-22T05:32:55;9.30;;;6.45;;
24663;SDS011;12791;50.992;13.788;2023-02-22T05:35:23;11.00;;;6.72;;
24663;SDS011;12791;50.992;13.788;2023-02-22T05:37:50;11.07;;;6.97;;
24663;SDS011;12791;50.992;13.788;2023-02-22T05:40:18;13.02;;;7.78;;
24663;SDS011;12791;50.992;13.788;2023-02-22T05:42:47;10.38;;;7.30;;
24663;SDS011;12791;50.992;13.788;2023-02-22T05:45:14;9.82;;;6.85;;
24663;SDS011;12791;50.992;13.788;2023-02-22T05:47:41;10.27;;;7.38;;
24663;SDS011;12791;50.992;13.788;2023-02-22T05:50:10;10.05;;;6.60;;
24663;SDS011;12791;50.992;13.788;2023-02-22T05:52:36;10.60;;;6.95;;
24663;SDS011;12791;50.992;13.788;2023-02-22T05:55:03;10.60;;;8.02;;
24663;SDS011;12791;50.992;13.788;2023-02-22T05:57:30;12.27;;;8.98;;
24663;SDS011;12791;50.992;13.788;2023-02-22T05:59:57;8.98;;;7.53;;
24663;SDS011;12791;50.992;13.788;2023-02-22T06:02:23;9.52;;;7.40;;
24663;SDS011;12791;50.992;13.788;2023-02-22T06:04:50;9.50;;;6.70;;
24663;SDS011;12791;50.992;13.788;2023-02-22T06:07:18;12.27;;;7.38;;
24663;SDS011;12791;50.992;13.788;2023-02-22T06:09:45;14.13;;;7.45;;
24663;SDS011;12791;50.992;13.788;2023-02-22T06:12:11;9.32;;;6.70;;
24663;SDS011;12791;50.992;13.788;2023-02-22T06:14:38;10.75;;;7.20;;
24663;SDS011;12791;50.992;13.788;2023-02-22T06:17:10;10.75;;;7.38;;
24663;SDS011;12791;50.992;13.788;2023-02-22T06:19:37;12.55;;;7.43;;
24663;SDS011;12791;50.992;13.788;2023-02-22T06:22:05;10.82;;;7.45;;
24663;SDS011;12791;50.992;13.788;2023-02-22T06:24:33;10.02;;;7.47;;
24663;SDS011;12791;50.992;13.788;2023-02-22T06:27:03;12.65;;;8.05;;
24663;SDS011;12791;50.992;13.788;2023-02-22T06:29:29;14.55;;;9.35;;
24663;SDS011;12791;50.992;13.788;2023-02-22T06:31:56;14.10;;;9.30;;
24663;SDS011;12791;50.992;13.788;2023-02-22T06:34:23;11.73;;;9.00;;
24663;SDS011;12791;50.992;13.788;2023-02-22T06:36:49;12.70;;;8.80;;
24663;SDS011;12791;50.992;13.788;2023-02-22T06:39:16;11.23;;;8.18;;
24663;SDS011;12791;50.992;13.788;2023-02-22T06:41:45;12.75;;;9.02;;
24663;SDS011;12791;50.992;13.788;2023-02-22T06:44:14;15.63;;;9.55;;
24663;SDS011;12791;50.992;13.788;2023-02-22T06:46:45;13.13;;;9.00;;
24663;SDS011;12791;50.992;13.788;2023-02-22T06:49:13;15.48;;;9.95;;
24663;SDS011;12791;50.992;13.788;2023-02-22T06:51:39;16.50;;;11.18;;
24663;SDS011;12791;50.992;13.788;2023-02-22T06:54:06;16.40;;;10.68;;
24663;SDS011;12791;50.992;13.788;2023-02-22T06:56:33;13.48;;;9.40;;
24663;SDS011;12791;50.992;13.788;2023-02-22T06:59:00;13.73;;;10.02;;
24663;SDS011;12791;50.992;13.788;2023-02-22T07:01:27;12.65;;;9.02;;
24663;SDS011;12791;50.992;13.788;2023-02-22T07:03:54;13.13;;;9.60;;
24663;SDS011;12791;50.992;13.788;2023-02-22T07:06:21;14.15;;;9.30;;
24663;SDS011;12791;50.992;13.788;2023-02-22T07:08:48;12.63;;;8.88;;
24663;SDS011;12791;50.992;13.788;2023-02-22T07:11:15;13.80;;;8.98;;
24663;SDS011;12791;50.992;13.788;2023-02-22T07:13:41;11.48;;;8.18;;
24663;SDS011;12791;50.992;13.788;2023-02-22T07:16:09;11.95;;;8.13;;
24663;SDS011;12791;50.992;13.788;2023-02-22T07:18:36;12.25;;;8.30;;
24663;SDS011;12791;50.992;13.788;2023-02-22T07:21:03;14.60;;;8.75;;
24663;SDS011;12791;50.992;13.788;2023-02-22T07:23:30;13.30;;;8.88;;
24663;SDS011;12791;50.992;13.788;2023-02-22T07:25:58;13.02;;;8.82;;
24663;SDS011;12791;50.992;13.788;2023-02-22T07:28:25;11.65;;;7.90;;
24663;SDS011;12791;50.992;13.788;2023-02-22T07:30:52;10.93;;;8.20;;
24663;SDS011;12791;50.992;13.788;2023-02-22T07:33:20;11.85;;;8.30;;
24663;SDS011;12791;50.992;13.788;2023-02-22T07:35:47;13.68;;;8.43;;
24663;SDS011;12791;50.992;13.788;2023-02-22T07:38:15;11.63;;;8.70;;
24663;SDS011;12791;50.992;13.788;2023-02-22T07:40:43;13.10;;;9.35;;
24663;SDS011;12791;50.992;13.788;2023-02-22T07:43:12;11.82;;;8.90;;
24663;SDS011;12791;50.992;13.788;2023-02-22T07:45:40;12.70;;;9.07;;
24663;SDS011;12791;50.992;13.788;2023-02-22T07:48:07;13.10;;;9.68;;
24663;SDS011;12791;50.992;13.788;2023-02-22T07:50:35;11.50;;;8.85;;
24663;SDS011;12791;50.992;13.788;2023-02-22T07:53:03;14.95;;;9.80;;
24663;SDS011;12791;50.992;13.788;2023-02-22T07:55:31;11.98;;;9.80;;
24663;SDS011;12791;50.992;13.788;2023-02-22T07:57:59;13.60;;;10.52;;
24663;SDS011;12791;50.992;13.788;2023-02-22T08:00:27;14.18;;;10.20;;
24663;SDS011;12791;50.992;13.788;2023-02-22T08:02:55;12.90;;;9.30;;
24663;SDS011;12791;50.992;13.788;2023-02-22T08:05:24;13.75;;;9.57;;
24663;SDS011;12791;50.992;13.788;2023-02-22T08:07:53;13.30;;;9.35;;
24663;SDS011;12791;50.992;13.788;2023-02-22T08:10:21;11.60;;;8.35;;
24663;SDS011;12791;50.992;13.788;2023-02-22T08:12:49;11.93;;;9.05;;
24663;SDS011;12791;50.992;13.788;2023-02-22T08:15:17;11.75;;;9.43;;
24663;SDS011;12791;50.992;13.788;2023-02-22T08:17:45;13.55;;;9.15;;
24663;SDS011;12791;50.992;13.788;2023-02-22T08:20:11;15.40;;;10.18;;
24663;SDS011;12791;50.992;13.788;2023-02-22T08:22:41;12.57;;;9.55;;
24663;SDS011;12791;50.992;13.788;2023-02-22T08:25:09;14.23;;;10.30;;
24663;SDS011;12791;50.992;13.788;2023-02-22T08:27:36;14.60;;;9.70;;
24663;SDS011;12791;50.992;13.788;2023-02-22T08:30:03;16.50;;;10.52;;
24663;SDS011;12791;50.992;13.788;2023-02-22T08:32:31;16.60;;;11.48;;
24663;SDS011;12791;50.992;13.788;2023-02-22T08:34:59;18.58;;;11.70;;
24663;SDS011;12791;50.992;13.788;2023-02-22T08:37:26;17.70;;;10.65;;
24663;SDS011;12791;50.992;13.788;2023-02-22T08:39:53;16.92;;;11.43;;
24663;SDS011;12791;50.992;13.788;2023-02-22T08:42:22;16.98;;;11.23;;
24663;SDS011;12791;50.992;13.788;2023-02-22T08:44:48;17.15;;;12.57;;
24663;SDS011;12791;50.992;13.788;2023-02-22T08:47:15;16.63;;;11.00;;
24663;SDS011;12791;50.992;13.788;2023-02-22T08:49:41;21.33;;;12.18;;
24663;SDS011;12791;50.992;13.788;2023-02-22T08:52:08;17.05;;;11.77;;
24663;SDS011;12791;50.992;13.788;2023-02-22T08:54:35;16.75;;;11.77;;
24663;SDS011;12791;50.992;13.788;2023-02-22T08:57:01;19.08;;;12.63;;
24663;SDS011;12791;50.992;13.788;2023-02-22T08:59:29;19.50;;;13.05;;
24663;SDS011;12791;50.992;13.788;2023-02-22T09:01:56;18.98;;;11.95;;
24663;SDS011;12791;50.992;13.788;2023-02-22T09:04:22;17.52;;;11.63;;
24663;SDS011;12791;50.992;13.788;2023-02-22T09:06:49;17.45;;;12.32;;
24663;SDS011;12791;50.992;13.788;2023-02-22T09:09:16;19.25;;;12.93;;
24663;SDS011;12791;50.992;13.788;2023-02-22T09:11:45;18.95;;;12.35;;
24663;SDS011;12791;50.992;13.788;2023-02-22T09:14:12;18.60;;;12.38;;
24663;SDS011;12791;50.992;13.788;2023-02-22T09:16:41;18.63;;;12.88;;
24663;SDS011;12791;50.992;13.788;2023-02-22T09:19:08;16.08;;;11.57;;
24663;SDS011;12791;50.992;13.788;2023-02-22T09:21:35;17.42;;;11.63;;
24663;SDS011;12791;50.992;13.788;2023-02-22T09:24:01;16.23;;;11.95;;
24663;SDS011;12791;50.992;13.788;2023-02-22T09:26:32;19.08;;;12.68;;
24663;SDS011;12791;50.992;13.788;2023-02-22T09:28:59;16.45;;;12.93;;
24663;SDS011;12791;50.992;13.788;2023-02-22T09:31:25;19.02;;;12.88;;
24663;SDS011;12791;50.992;13.788;2023-02-22T09:33:53;19.13;;;13.18;;
24663;SDS011;12791;50.992;13.788;2023-02-22T09:36:20;20.38;;;13.95;;
24663;SDS011;12791;50.992;13.788;2023-02-22T09:38:46;19.25;;;13.05;;
24663;SDS011;12791;50.992;13.788;2023-02-22T09:41:15;15.75;;;12.10;;
24663;SDS011;12791;50.992;13.788;2023-02-22T09:43:48;18.85;;;12.52;;
24663;SDS011;12791;50.992;13.788;2023-02-22T09:46:24;18.55;;;13.30;;
24663;SDS011;12791;50.992;13.788;2023-02-22T09:48:58;16.55;;;12.10;;
24663;SDS011;12791;50.992;13.788;2023-02-22T09:51:32;16.42;;;12.35;;
24663;SDS011;12791;50.992;13.788;2023-02-22T09:54:05;17.10;;;12.52;;
24663;SDS011;12791;50.992;13.788;2023-02-22T09:56:41;15.55;;;12.10;;
24663;SDS011;12791;50.992;13.788;2023-02-22T09:59:10;15.43;;;10.45;;
24663;SDS011;12791;50.992;13.788;2023-02-22T10:01:44;15.23;;;10.65;;
24663;SDS011;12791;50.992;13.788;2023-02-22T10:04:16;14.07;;;10.95;;
24663;SDS011;12791;50.992;13.788;2023-02-22T10:06:50;16.63;;;11.77;;
24663;SDS011;12791;50.992;13.788;2023-02-22T10:09:30;17.98;;;12.52;;
24663;SDS011;12791;50.992;13.788;2023-02-22T10:11:59;14.98;;;11.48;;
24663;SDS011;12791;50.992;13.788;2023-02-22T10:14:40;15.45;;;11.23;;
24663;SDS011;12791;50.992;13.788;2023-02-22T10:17:15;19.10;;;11.73;;
24663;SDS011;12791;50.992;13.788;2023-02-22T10:19:55;13.30;;;6.95;;
24663;SDS011;12791;50.992;13.788;2023-02-22T10:22:48;15.98;;;9.00;;
24663;SDS011;12791;50.992;13.788;2023-02-22T10:25:27;15.43;;;11.02;;
24663;SDS011;12791;50.992;13.788;2023-02-22T10:28:00;15.10;;;10.93;;
24663;SDS011;12791;50.992;13.788;2023-02-22T10:30:31;13.35;;;10.38;;
24663;SDS011;12791;50.992;13.788;2023-02-22T10:33:03;16.48;;;11.93;;
24663;SDS011;12791;50.992;13.788;2023-02-22T10:35:36;15.93;;;10.95;;
24663;SDS011;12791;50.992;13.788;2023-02-22T10:38:09;14.65;;;10.75;;
24663;SDS011;12791;50.992;13.788;2023-02-22T10:40:40;15.07;;;10.32;;
24663;SDS011;12791;50.992;13.788;2023-02-22T10:43:10;15.93;;;11.15;;
24663;SDS011;12791;50.992;13.788;2023-02-22T10:45:37;16.33;;;11.82;;
24663;SDS011;12791;50.992;13.788;2023-02-22T10:48:05;16.10;;;11.40;;
24663;SDS011;12791;50.992;13.788;2023-02-22T10:50:37;14.63;;;9.73;;
24663;SDS011;12791;50.992;13.788;2023-02-22T10:53:06;15.77;;;10.10;;
24663;SDS011;12791;50.992;13.788;2023-02-22T10:55:33;15.55;;;10.82;;
24663;SDS011;12791;50.992;13.788;2023-02-22T10:58:01;15.13;;;10.63;;
24663;SDS011;12791;50.992;13.788;2023-02-22T11:00:32;13.57;;;9.80;;
24663;SDS011;12791;50.992;13.788;2023-02-22T11:03:02;12.18;;;9.60;;
24663;SDS011;12791;50.992;13.788;2023-02-22T11:05:33;14.80;;;10.30;;
24663;SDS011;12791;50.992;13.788;2023-02-22T11:08:21;12.25;;;9.75;;
24663;SDS011;12791;50.992;13.788;2023-02-22T11:10:50;12.07;;;9.38;;
24663;SDS011;12791;50.992;13.788;2023-02-22T11:13:22;12.25;;;9.23;;
24663;SDS011;12791;50.992;13.788;2023-02-22T11:15:50;12.98;;;9.65;;
24663;SDS011;12791;50.992;13.788;2023-02-22T11:18:21;11.50;;;9.27;;
24663;SDS011;12791;50.992;13.788;2023-02-22T11:20:57;12.73;;;9.40;;
24663;SDS011;12791;50.992;13.788;2023-02-22T11:23:38;13.07;;;9.45;;
24663;SDS011;12791;50.992;13.788;2023-02-22T11:26:09;13.20;;;8.32;;
24663;SDS011;12791;50.992;13.788;2023-02-22T11:28:39;11.57;;;8.70;;
24663;SDS011;12791;50.992;13.788;2023-02-22T11:31:13;10.00;;;8.30;;
24663;SDS011;12791;50.992;13.788;2023-02-22T11:33:50;12.73;;;8.95;;
24663;SDS011;12791;50.992;13.788;2023-02-22T11:36:29;12.38;;;8.43;;
24663;SDS011;12791;50.992;13.788;2023-02-22T11:39:02;10.77;;;8.45;;
24663;SDS011;12791;50.992;13.788;2023-02-22T11:41:30;11.40;;;8.82;;
24663;SDS011;12791;50.992;13.788;2023-02-22T11:44:10;9.00;;;7.65;;
24663;SDS011;12791;50.992;13.788;2023-02-22T11:46:39;9.32;;;7.75;;
24663;SDS011;12791;50.992;13.788;2023-02-22T11:49:08;10.60;;;7.97;;
24663;SDS011;12791;50.992;13.788;2023-02-22T11:51:39;11.25;;;9.10;;
24663;SDS011;12791;50.992;13.788;2023-02-22T11:54:21;9.60;;;7.75;;
24663;SDS011;12791;50.992;13.788;2023-02-22T11:57:14;9.75;;;7.47;;
24663;SDS011;12791;50.992;13.788;2023-02-22T11:59:53;8.32;;;6.80;;
24663;SDS011;12791;50.992;13.788;2023-02-22T12:02:49;6.70;;;5.85;;
24663;SDS011;12791;50.992;13.788;2023-02-22T12:05:29;7.22;;;6.30;;
24663;SDS011;12791;50.992;13.788;2023-02-22T12:08:10;6.70;;;5.95;;
24663;SDS011;12791;50.992;13.788;2023-02-22T12:10:51;5.78;;;5.20;;
24663;SDS011;12791;50.992;13.788;2023-02-22T12:13:28;6.00;;;5.40;;
24663;SDS011;12791;50.992;13.788;2023-02-22T12:16:04;5.80;;;5.22;;
24663;SDS011;12791;50.992;13.788;2023-02-22T12:18:38;6.22;;;5.63;;
24663;SDS011;12791;50.992;13.788;2023-02-22T12:21:14;7.18;;;5.55;;
24663;SDS011;12791;50.992;13.788;2023-02-22T12:23:44;6.32;;;4.95;;
24663;SDS011;12791;50.992;13.788;2023-02-22T12:26:19;6.03;;;4.60;;
24663;SDS011;12791;50.992;13.788;2023-02-22T12:28:51;5.82;;;4.93;;
24663;SDS011;12791;50.992;13.788;2023-02-22T12:31:24;6.95;;;5.35;;
24663;SDS011;12791;50.992;13.788;2023-02-22T12:33:58;5.97;;;4.90;;
24663;SDS011;12791;50.992;13.788;2023-02-22T12:36:34;4.65;;;4.25;;
24663;SDS011;12791;50.992;13.788;2023-02-22T12:39:08;4.60;;;3.92;;
24663;SDS011;12791;50.992;13.788;2023-02-22T12:41:50;7.25;;;4.93;;
24663;SDS011;12791;50.992;13.788;2023-02-22T12:44:20;5.70;;;5.10;;
24663;SDS011;12791;50.992;13.788;2023-02-22T12:46:51;6.50;;;4.80;;
24663;SDS011;12791;50.992;13.788;2023-02-22T12:49:22;4.68;;;4.28;;
24663;SDS011;12791;50.992;13.788;2023-02-22T12:51:56;5.95;;;5.20;;
24663;SDS011;12791;50.992;13.788;2023-02-22T12:54:30;5.43;;;4.93;;
24663;SDS011;12791;50.992;13.788;2023-02-22T12:57:08;5.68;;;5.13;;
24663;SDS011;12791;50.992;13.788;2023-02-22T12:59:43;5.57;;;4.57;;
24663;SDS011;12791;50.992;13.788;2023-02-22T13:02:14;5.65;;;4.28;;
24663;SDS011;12791;50.992;13.788;2023-02-22T13:04:46;5.35;;;4.85;;
24663;SDS011;12791;50.992;13.788;2023-02-22T13:07:17;4.78;;;4.38;;
24663;SDS011;12791;50.992;13.788;2023-02-22T13:09:53;4.60;;;4.20;;
24663;SDS011;12791;50.992;13.788;2023-02-22T13:12:42;5.28;;;4.78;;
24663;SDS011;12791;50.992;13.788;2023-02-22T13:15:16;5.43;;;4.93;;
24663;SDS011;12791;50.992;13.788;2023-02-22T13:17:51;3.95;;;3.47;;
24663;SDS011;12791;50.992;13.788;2023-02-22T13:20:26;7.78;;;4.82;;
24663;SDS011;12791;50.992;13.788;2023-02-22T13:22:59;4.25;;;3.85;;
24663;SDS011;12791;50.992;13.788;2023-02-22T13:25:31;4.13;;;3.75;;
24663;SDS011;12791;50.992;13.788;2023-02-22T13:28:13;4.32;;;3.92;;
24663;SDS011;12791;50.992;13.788;2023-02-22T13:30:47;4.07;;;3.78;;
24663;SDS011;12791;50.992;13.788;2023-02-22T13:33:30;5.60;;;4.53;;
24663;SDS011;12791;50.992;13.788;2023-02-22T13:36:18;6.82;;;4.82;;
24663;SDS011;12791;50.992;13.788;2023-02-22T13:41:55;5.47;;;4.38;;
24663;SDS011;12791;50.992;13.788;2023-02-22T13:44:54;4.60;;;4.20;;
24663;SDS011;12791;50.992;13.788;2023-02-22T13:50:52;4.32;;;4.00;;
24663;SDS011;12791;50.992;13.788;2023-02-22T13:53:31;5.88;;;5.28;;
24663;SDS011;12791;50.992;13.788;2023-02-22T13:56:07;6.25;;;4.25;;
24663;SDS011;12791;50.992;13.788;2023-02-22T13:58:45;5.28;;;4.65;;
24663;SDS011;12791;50.992;13.788;2023-02-22T14:04:20;4.00;;;3.63;;
24663;SDS011;12791;50.992;13.788;2023-02-22T14:10:34;4.13;;;3.83;;
24663;SDS011;12791;50.992;13.788;2023-02-22T14:13:13;3.53;;;3.20;;
24663;SDS011;12791;50.992;13.788;2023-02-22T14:18:49;5.18;;;3.83;;
24663;SDS011;12791;50.992;13.788;2023-02-22T14:21:26;3.65;;;3.35;;
24663;SDS011;12791;50.992;13.788;2023-02-22T14:23:53;3.72;;;3.42;;
24663;SDS011;12791;50.992;13.788;2023-02-22T14:26:22;3.97;;;3.67;;
24663;SDS011;12791;50.992;13.788;2023-02-22T14:28:52;4.38;;;3.83;;
24663;SDS011;12791;50.992;13.788;2023-02-22T14:31:21;4.30;;;3.90;;
24663;SDS011;12791;50.992;13.788;2023-02-22T14:33:53;3.72;;;3.38;;
24663;SDS011;12791;50.992;13.788;2023-02-22T14:36:35;2.83;;;2.63;;
24663;SDS011;12791;50.992;13.788;2023-02-22T14:39:24;4.43;;;3.33;;
24663;SDS011;12791;50.992;13.788;2023-02-22T14:41:57;2.70;;;2.53;;
24663;SDS011;12791;50.992;13.788;2023-02-22T14:44:28;4.22;;;3.30;;
24663;SDS011;12791;50.992;13.788;2023-02-22T14:46:58;3.88;;;3.30;;
24663;SDS011;12791;50.992;13.788;2023-02-22T14:49:32;3.40;;;3.10;;
24663;SDS011;12791;50.992;13.788;2023-02-22T14:52:04;4.32;;;3.05;;
24663;SDS011;12791;50.992;13.788;2023-02-22T14:54:45;4.82;;;3.88;;
24663;SDS011;12791;50.992;13.788;2023-02-22T14:57:19;3.65;;;3.35;;
24663;SDS011;12791;50.992;13.788;2023-02-22T14:59:55;4.15;;;3.65;;
24663;SDS011;12791;50.992;13.788;2023-02-22T15:02:43;3.50;;;3.20;;
24663;SDS011;12791;50.992;13.788;2023-02-22T15:05:12;3.85;;;3.55;;
24663;SDS011;12791;50.992;13.788;2023-02-22T15:07:48;3.83;;;3.50;;
24663;SDS011;12791;50.992;13.788;2023-02-22T15:10:18;4.07;;;3.70;;
24663;SDS011;12791;50.992;13.788;2023-02-22T15:12:52;3.42;;;3.13;;